Time,TemperatureF,DewpointF,PressureIn,WindDirection,WindDirectionDegrees,WindSpeedMPH,WindSpeedGustMPH,Humidity,HourlyPrecipIn,Conditions,Clouds,dailyrainin,SoftwareType,DateUTC
2013-03-02 00:02:00,53.8,49.4,30.13,WSW,248,0.0,0.0,85,0.00,BKN,BKN,0.00,WeatherDisplay:10.37,2013-03-02 08:02:00,
2013-03-02 00:13:00,53.8,49.4,30.13,WSW,248,0.0,0.0,85,0.00,OVC,OVC,0.00,WeatherDisplay:10.37,2013-03-02 08:13:00,
2013-03-02 00:23:00,54.0,49.6,30.13,WSW,248,0.0,0.0,85,0.00,OVC,OVC,0.00,WeatherDisplay:10.37,2013-03-02 08:23:00,
2013-03-02 00:33:00,54.0,49.6,30.13,WSW,248,0.0,0.0,85,0.00,OVC,OVC,0.00,WeatherDisplay:10.37,2013-03-02 08:33:00,
2013-03-02 00:43:00,54.0,49.6,30.13,WSW,248,0.0,0.0,85,0.00,OVC,OVC,0.00,WeatherDisplay:10.37,2013-03-02 08:43:00,
2013-03-02 00:53:00,54.0,49.6,30.13,WSW,248,0.0,0.0,85,0.00,OVC,OVC,0.00,WeatherDisplay:10.37,2013-03-02 08:53:00,
2013-03-02 01:02:00,54.0,49.2,30.13,WSW,248,0.0,0.0,84,0.00,OVC,OVC,0.00,WeatherDisplay:10.37,2013-03-02 09:02:00,
2013-03-02 01:07:00,54.0,49.2,30.13,WSW,248,0.0,0.0,84,0.00,OVC,OVC,0.00,WeatherDisplay:10.37,2013-03-02 09:07:00,
2013-03-02 01:13:00,54.0,49.2,30.13,WSW,248,0.0,0.0,84,0.00,OVC,OVC,0.00,WeatherDisplay:10.37,2013-03-02 09:13:00,
2013-03-02 01:23:00,54.0,49.2,30.13,WSW,248,0.0,0.0,84,0.00,OVC,OVC,0.00,WeatherDisplay:10.37,2013-03-02 09:23:00,
2013-03-02 01:33:00,53.8,49.1,30.13,WSW,248,0.0,0.0,84,0.00,OVC,OVC,0.00,WeatherDisplay:10.37,2013-03-02 09:33:00,
2013-03-02 01:43:00,54.0,49.2,30.13,WSW,248,0.0,0.0,84,0.00,OVC,OVC,0.00,WeatherDisplay:10.37,2013-03-02 09:43:00,
2013-03-02 01:53:00,54.0,49.2,30.13,WSW,248,0.0,0.0,84,0.00,OVC,OVC,0.00,WeatherDisplay:10.37,2013-03-02 09:53:00,
2013-03-02 02:03:00,53.8,49.1,30.13,WSW,248,0.0,0.0,84,0.00,OVC,OVC,0.00,WeatherDisplay:10.37,2013-03-02 10:03:00,
2013-03-02 02:13:00,54.0,48.9,30.13,WSW,248,0.0,0.0,83,0.00,OVC,OVC,0.00,WeatherDisplay:10.37,2013-03-02 10:13:00,
2013-03-02 02:23:00,53.8,48.7,30.13,WSW,248,0.0,0.0,83,0.00,OVC,OVC,0.00,WeatherDisplay:10.37,2013-03-02 10:23:00,
2013-03-02 02:33:00,53.8,48.7,30.13,WSW,248,0.0,0.0,83,0.00,OVC,OVC,0.00,WeatherDisplay:10.37,2013-03-02 10:33:00,
2013-03-02 02:43:00,53.8,48.7,30.13,WSW,248,0.0,0.0,83,0.00,OVC,OVC,0.00,WeatherDisplay:10.37,2013-03-02 10:43:00,
2013-03-02 02:53:00,53.6,48.6,30.13,WSW,248,0.0,0.0,83,0.00,OVC,OVC,0.00,WeatherDisplay:10.37,2013-03-02 10:53:00,
2013-03-02 02:58:00,53.6,48.6,30.13,WSW,248,0.0,0.0,83,0.00,OVC,OVC,0.00,WeatherDisplay:10.37,2013-03-02 10:58:00,
2013-03-02 03:07:00,53.4,48.4,30.13,WSW,248,0.0,0.0,83,0.00,OVC,OVC,0.00,WeatherDisplay:10.37,2013-03-02 11:07:00,
2013-03-02 03:13:00,53.4,48.4,30.13,WSW,248,0.0,0.0,83,0.00,OVC,OVC,0.00,WeatherDisplay:10.37,2013-03-02 11:13:00,
2013-03-02 03:23:00,53.2,48.2,30.13,WSW,248,0.0,0.0,83,0.00,OVC,OVC,0.00,WeatherDisplay:10.37,2013-03-02 11:23:00,
2013-03-02 03:33:00,53.1,48.0,30.13,WSW,248,0.0,0.0,83,0.00,OVC,OVC,0.00,WeatherDisplay:10.37,2013-03-02 11:33:00,
2013-03-02 03:43:00,52.9,47.9,30.13,WSW,248,0.0,0.0,83,0.00,OVC,OVC,0.00,WeatherDisplay:10.37,2013-03-02 11:43:00,
2013-03-02 03:53:00,52.7,47.7,30.13,WSW,248,0.0,0.0,83,0.00,OVC,OVC,0.00,WeatherDisplay:10.37,2013-03-02 11:53:00,
2013-03-02 03:57:00,52.5,47.5,30.13,WSW,248,0.0,0.0,83,0.00,OVC,OVC,0.00,WeatherDisplay:10.37,2013-03-02 11:57:00,
2013-03-02 04:07:00,52.3,47.3,30.13,WSW,248,0.0,0.0,83,0.00,OVC,OVC,0.00,WeatherDisplay:10.37,2013-03-02 12:07:00,
2013-03-02 04:13:00,52.3,47.3,30.13,WSW,248,0.0,3.0,83,0.00,OVC,OVC,0.00,WeatherDisplay:10.37,2013-03-02 12:13:00,
2013-03-02 04:23:00,52.3,47.3,30.13,South,189,1.0,2.0,83,0.00,OVC,OVC,0.00,WeatherDisplay:10.37,2013-03-02 12:23:00,
2013-03-02 04:33:00,52.3,47.3,30.13,South,173,1.0,3.0,83,0.00,OVC,OVC,0.00,WeatherDisplay:10.37,2013-03-02 12:33:00,
2013-03-02 04:43:00,52.2,47.2,30.13,South,190,1.0,3.0,83,0.00,OVC,OVC,0.00,WeatherDisplay:10.37,2013-03-02 12:43:00,
2013-03-02 04:53:00,52.3,47.3,30.13,SSE,161,1.0,3.0,83,0.00,OVC,OVC,0.00,WeatherDisplay:10.37,2013-03-02 12:53:00,
2013-03-02 05:02:00,52.3,47.3,30.13,South,181,1.0,2.0,83,0.00,OVC,OVC,0.00,WeatherDisplay:10.37,2013-03-02 13:02:00,
2013-03-02 05:07:00,52.2,47.2,30.13,SSW,194,0.0,1.0,83,0.00,BKN,BKN,0.00,WeatherDisplay:10.37,2013-03-02 13:07:00,
2013-03-02 05:13:00,52.2,47.2,30.13,South,191,0.0,2.0,83,0.00,BKN,BKN,0.00,WeatherDisplay:10.37,2013-03-02 13:13:00,
2013-03-02 05:23:00,52.3,47.0,30.13,South,178,1.0,2.0,82,0.00,BKN,BKN,0.00,WeatherDisplay:10.37,2013-03-02 13:23:00,
2013-03-02 05:33:00,52.3,47.0,30.13,South,188,0.0,2.0,82,0.00,BKN,BKN,0.00,WeatherDisplay:10.37,2013-03-02 13:33:00,
2013-03-02 05:43:00,52.3,47.0,30.13,SSE,167,1.0,3.0,82,0.00,BKN,BKN,0.00,WeatherDisplay:10.37,2013-03-02 13:43:00,
2013-03-02 05:53:00,52.3,47.0,30.13,South,170,0.0,2.0,82,0.00,BKN,BKN,0.00,WeatherDisplay:10.37,2013-03-02 13:53:00,
2013-03-02 06:02:00,52.3,47.0,30.13,SSE,149,0.0,1.0,82,0.00,BKN,BKN,0.00,WeatherDisplay:10.37,2013-03-02 14:02:00,
2013-03-02 06:09:00,52.3,47.0,30.13,SE,146,0.0,0.0,82,0.00,OVC,OVC,0.00,WeatherDisplay:10.37,2013-03-02 14:09:00,
2013-03-02 06:17:00,52.2,46.8,30.13,SSE,157,1.0,3.0,82,0.00,OVC,OVC,0.00,WeatherDisplay:10.37,2013-03-02 14:17:00,
2013-03-02 06:23:00,52.2,46.8,30.13,South,174,1.0,5.0,82,0.00,OVC,OVC,0.00,WeatherDisplay:10.37,2013-03-02 14:23:00,
2013-03-02 06:33:00,52.0,46.7,30.13,SSE,156,2.0,3.0,82,0.00,OVC,OVC,0.00,WeatherDisplay:10.37,2013-03-02 14:33:00,
2013-03-02 06:43:00,52.0,46.7,30.13,South,182,0.0,2.0,82,0.00,OVC,OVC,0.00,WeatherDisplay:10.37,2013-03-02 14:43:00,
2013-03-02 06:53:00,51.8,46.5,30.13,South,174,0.0,1.0,82,0.00,OVC,OVC,0.00,WeatherDisplay:10.37,2013-03-02 14:53:00,
2013-03-02 07:02:00,51.6,46.3,30.13,East,87,1.0,5.0,82,0.00,OVC,OVC,0.00,WeatherDisplay:10.37,2013-03-02 15:02:00,
2013-03-02 07:17:00,51.6,46.3,30.13,SSW,201,1.0,3.0,82,0.00,OVC,OVC,0.00,WeatherDisplay:10.37,2013-03-02 15:17:00,
2013-03-02 07:27:00,51.8,46.5,30.13,South,180,2.0,3.0,82,0.00,OVC,OVC,0.00,WeatherDisplay:10.37,2013-03-02 15:27:00,
2013-03-02 07:32:00,52.0,46.7,30.13,South,173,2.0,5.0,82,0.00,OVC,OVC,0.00,WeatherDisplay:10.37,2013-03-02 15:32:00,
2013-03-02 07:42:00,52.2,46.8,30.13,SSE,161,2.0,5.0,82,0.00,OVC,OVC,0.00,WeatherDisplay:10.37,2013-03-02 15:42:00,
2013-03-02 07:52:00,52.3,46.7,30.13,SSE,166,2.0,8.0,81,0.00,OVC,OVC,0.00,WeatherDisplay:10.37,2013-03-02 15:52:00,
2013-03-02 07:57:00,52.5,46.5,30.13,South,173,3.0,13.0,80,0.00,OVC,OVC,0.00,WeatherDisplay:10.37,2013-03-02 15:57:00,
2013-03-02 08:02:00,52.7,46.7,30.13,South,169,3.0,7.0,80,0.00,OVC,OVC,0.00,WeatherDisplay:10.37,2013-03-02 16:02:00,
2013-03-02 08:07:00,52.9,46.9,30.13,SSE,155,3.0,7.0,80,0.00,SCT,SCT,0.00,WeatherDisplay:10.37,2013-03-02 16:07:00,
2013-03-02 08:17:00,53.1,47.1,30.13,South,187,3.0,6.0,80,0.00,SCT,SCT,0.00,WeatherDisplay:10.37,2013-03-02 16:17:00,
2013-03-02 08:22:00,53.2,47.2,30.13,South,181,3.0,7.0,80,0.00,SCT,SCT,0.00,WeatherDisplay:10.37,2013-03-02 16:22:00,
2013-03-02 08:32:00,53.6,47.2,30.13,South,176,2.0,5.0,79,0.00,SCT,SCT,0.00,WeatherDisplay:10.37,2013-03-02 16:32:00,
2013-03-02 08:42:00,53.8,47.4,30.13,South,187,2.0,5.0,79,0.00,SCT,SCT,0.00,WeatherDisplay:10.37,2013-03-02 16:42:00,
2013-03-02 08:47:00,54.0,47.6,30.13,South,181,2.0,7.0,79,0.00,SCT,SCT,0.00,WeatherDisplay:10.37,2013-03-02 16:47:00,
2013-03-02 08:52:00,54.1,47.8,30.13,SSE,164,2.0,6.0,79,0.00,SCT,SCT,0.00,WeatherDisplay:10.37,2013-03-02 16:52:00,
2013-03-02 09:02:00,54.3,47.6,30.13,SE,139,2.0,6.0,78,0.00,SCT,SCT,0.00,WeatherDisplay:10.37,2013-03-02 17:02:00,
2013-03-02 09:07:00,54.5,47.8,30.13,SSE,153,3.0,6.0,78,0.00,SCT,SCT,0.00,WeatherDisplay:10.37,2013-03-02 17:07:00,
2013-03-02 09:17:00,54.9,47.8,30.13,SSE,162,2.0,7.0,77,0.00,SCT,SCT,0.00,WeatherDisplay:10.37,2013-03-02 17:17:00,
2013-03-02 09:22:00,55.0,48.0,30.13,SSE,162,2.0,5.0,77,0.00,SCT,SCT,0.00,WeatherDisplay:10.37,2013-03-02 17:22:00,
2013-03-02 09:32:00,55.4,48.3,30.13,South,186,3.0,6.0,77,0.00,SCT,SCT,0.00,WeatherDisplay:10.37,2013-03-02 17:32:00,
2013-03-02 09:42:00,55.8,48.3,30.13,South,176,3.0,9.0,76,0.00,SCT,SCT,0.00,WeatherDisplay:10.37,2013-03-02 17:42:00,
2013-03-02 09:52:00,56.1,48.7,30.13,South,182,3.0,6.0,76,0.00,SCT,SCT,0.00,WeatherDisplay:10.37,2013-03-02 17:52:00,
2013-03-02 10:02:00,56.5,48.6,30.13,SSW,206,3.0,7.0,75,0.00,SCT,SCT,0.00,WeatherDisplay:10.37,2013-03-02 18:02:00,
2013-03-02 10:07:00,56.7,48.8,30.13,South,182,5.0,9.0,75,0.00,CLR,CLR,0.00,WeatherDisplay:10.37,2013-03-02 18:07:00,
2013-03-02 10:17:00,56.7,48.5,30.13,SSE,160,3.0,9.0,74,0.00,CLR,CLR,0.00,WeatherDisplay:10.37,2013-03-02 18:17:00,
2013-03-02 10:22:00,56.8,48.6,30.13,SE,141,3.0,9.0,74,0.00,CLR,CLR,0.00,WeatherDisplay:10.37,2013-03-02 18:22:00,
2013-03-02 10:32:00,57.2,49.0,30.13,South,174,3.0,8.0,74,0.00,CLR,CLR,0.00,WeatherDisplay:10.37,2013-03-02 18:32:00,
2013-03-02 10:42:00,57.4,48.8,30.13,South,188,5.0,12.0,73,0.00,CLR,CLR,0.00,WeatherDisplay:10.37,2013-03-02 18:42:00,
2013-03-02 10:52:00,57.7,49.1,30.13,South,178,2.0,3.0,73,0.00,CLR,CLR,0.00,WeatherDisplay:10.37,2013-03-02 18:52:00,
2013-03-02 11:02:00,57.9,48.9,30.13,SE,142,3.0,9.0,72,0.00,CLR,CLR,0.00,WeatherDisplay:10.37,2013-03-02 19:02:00,
2013-03-02 11:07:00,58.1,49.1,30.13,SE,146,5.0,7.0,72,0.00,FEW,FEW,0.00,WeatherDisplay:10.37,2013-03-02 19:07:00,
2013-03-02 11:17:00,58.1,49.1,30.13,SSE,168,3.0,7.0,72,0.00,FEW,FEW,0.00,WeatherDisplay:10.37,2013-03-02 19:17:00,
2013-03-02 11:22:00,58.1,49.1,30.13,South,190,3.0,7.0,72,0.00,FEW,FEW,0.00,WeatherDisplay:10.37,2013-03-02 19:22:00,
2013-03-02 11:32:00,58.1,48.7,30.13,SSE,150,3.0,8.0,71,0.00,FEW,FEW,0.00,WeatherDisplay:10.37,2013-03-02 19:32:00,
2013-03-02 11:42:00,58.3,48.9,30.13,SSE,153,5.0,8.0,71,0.00,FEW,FEW,0.00,WeatherDisplay:10.37,2013-03-02 19:42:00,
2013-03-02 11:52:00,58.5,49.1,30.13,ESE,123,5.0,9.0,71,0.00,FEW,FEW,0.00,WeatherDisplay:10.37,2013-03-02 19:52:00,
2013-03-02 12:02:00,58.8,49.4,30.13,SSE,166,5.0,14.0,71,0.00,FEW,FEW,0.00,WeatherDisplay:10.37,2013-03-02 20:02:00,
2013-03-02 12:07:00,59.0,49.2,30.13,South,181,5.0,13.0,70,0.00,FEW,FEW,0.00,WeatherDisplay:10.37,2013-03-02 20:07:00,
2013-03-02 12:17:00,59.0,48.8,30.13,South,179,3.0,8.0,69,0.00,FEW,FEW,0.00,WeatherDisplay:10.37,2013-03-02 20:17:00,
2013-03-02 12:22:00,59.0,49.2,30.13,South,175,3.0,6.0,70,0.00,FEW,FEW,0.00,WeatherDisplay:10.37,2013-03-02 20:22:00,
2013-03-02 12:27:00,59.0,48.8,30.13,SSE,153,3.0,8.0,69,0.00,FEW,FEW,0.00,WeatherDisplay:10.37,2013-03-02 20:27:00,
2013-03-02 12:32:00,59.0,48.8,30.13,South,172,5.0,10.0,69,0.00,FEW,FEW,0.00,WeatherDisplay:10.37,2013-03-02 20:32:00,
2013-03-02 12:42:00,59.0,48.8,30.13,SE,142,3.0,6.0,69,0.00,FEW,FEW,0.00,WeatherDisplay:10.37,2013-03-02 20:42:00,
2013-03-02 12:52:00,59.0,48.8,30.13,SSW,202,3.0,6.0,69,0.00,FEW,FEW,0.00,WeatherDisplay:10.37,2013-03-02 20:52:00,
2013-03-02 13:02:00,59.0,48.8,30.13,South,176,3.0,7.0,69,0.00,FEW,FEW,0.00,WeatherDisplay:10.37,2013-03-02 21:02:00,
2013-03-02 13:07:00,59.0,48.8,30.13,South,185,3.0,7.0,69,0.00,BKN,BKN,0.00,WeatherDisplay:10.37,2013-03-02 21:07:00,
2013-03-02 13:17:00,59.0,48.8,30.13,South,179,3.0,12.0,69,0.00,BKN,BKN,0.00,WeatherDisplay:10.37,2013-03-02 21:17:00,
2013-03-02 13:22:00,59.0,48.8,30.13,South,174,3.0,9.0,69,0.00,BKN,BKN,0.00,WeatherDisplay:10.37,2013-03-02 21:22:00,
2013-03-02 13:32:00,59.0,48.4,30.13,South,189,2.0,8.0,68,0.00,BKN,BKN,0.00,WeatherDisplay:10.37,2013-03-02 21:32:00,
2013-03-02 13:42:00,58.3,48.2,30.13,South,182,3.0,9.0,69,0.00,BKN,BKN,0.00,WeatherDisplay:10.37,2013-03-02 21:42:00,
2013-03-02 13:47:00,58.1,48.4,30.13,SSE,166,3.0,3.0,70,0.00,BKN,BKN,0.00,WeatherDisplay:10.37,2013-03-02 21:47:00,
2013-03-02 13:52:00,57.9,48.6,30.13,South,175,3.0,7.0,71,0.00,BKN,BKN,0.00,WeatherDisplay:10.37,2013-03-02 21:52:00,
2013-03-02 14:02:00,57.4,48.4,30.13,SSW,208,2.0,3.0,72,0.00,BKN,BKN,0.00,WeatherDisplay:10.37,2013-03-02 22:02:00,
2013-03-02 14:07:00,57.0,48.4,30.13,South,179,2.0,7.0,73,0.00,OVC,OVC,0.00,WeatherDisplay:10.37,2013-03-02 22:07:00,
2013-03-02 14:17:00,56.7,48.1,30.13,SE,134,3.0,9.0,73,0.00,OVC,OVC,0.00,WeatherDisplay:10.37,2013-03-02 22:17:00,
2013-03-02 14:22:00,56.5,48.3,30.13,SSE,151,3.0,5.0,74,0.00,OVC,OVC,0.00,WeatherDisplay:10.37,2013-03-02 22:22:00,
2013-03-02 14:32:00,56.1,48.3,30.13,SSE,161,2.0,4.0,75,0.00,OVC,OVC,0.00,WeatherDisplay:10.37,2013-03-02 22:32:00,
2013-03-02 14:42:00,55.9,48.1,30.13,South,172,2.0,5.0,75,0.00,OVC,OVC,0.00,WeatherDisplay:10.37,2013-03-02 22:42:00,
2013-03-02 14:52:00,55.4,48.0,30.13,South,178,2.0,5.0,76,0.03,RA,RA,0.03,WeatherDisplay:10.37,2013-03-02 22:52:00,
2013-03-02 15:02:00,55.0,48.3,30.13,South,189,2.0,5.0,78,0.00,OVC,OVC,0.03,WeatherDisplay:10.37,2013-03-02 23:02:00,
2013-03-02 15:07:00,54.9,48.5,30.13,South,180,2.0,5.0,79,0.00,OVC,OVC,0.03,WeatherDisplay:10.37,2013-03-02 23:07:00,
2013-03-02 15:17:00,54.7,49.0,30.13,SSE,155,2.0,5.0,81,0.00,OVC,OVC,0.03,WeatherDisplay:10.37,2013-03-02 23:17:00,
2013-03-02 15:22:00,54.5,48.8,30.13,South,176,2.0,4.0,81,0.00,OVC,OVC,0.03,WeatherDisplay:10.37,2013-03-02 23:22:00,
2013-03-02 15:32:00,54.5,49.1,30.13,ESE,109,1.0,2.0,82,0.00,OVC,OVC,0.03,WeatherDisplay:10.37,2013-03-02 23:32:00,
2013-03-02 15:42:00,54.5,49.4,30.13,South,175,1.0,2.0,83,0.00,OVC,OVC,0.03,WeatherDisplay:10.37,2013-03-02 23:42:00,
2013-03-02 15:47:00,54.5,49.4,30.13,SSE,166,1.0,4.0,83,0.00,OVC,OVC,0.03,WeatherDisplay:10.37,2013-03-02 23:47:00,
2013-03-02 15:52:00,54.3,48.6,30.13,North,356,2.0,6.0,81,0.00,OVC,OVC,0.03,WeatherDisplay:10.37,2013-03-02 23:52:00,
2013-03-02 16:02:00,53.1,46.4,30.13,NNW,341,3.0,6.0,78,0.00,OVC,OVC,0.03,WeatherDisplay:10.37,2013-03-03 00:02:00,
2013-03-02 16:07:00,52.5,45.2,30.13,NNE,33,5.0,8.0,76,0.00,OVC,OVC,0.03,WeatherDisplay:10.37,2013-03-03 00:07:00,
2013-03-02 16:17:00,50.7,43.1,30.13,NE,41,6.0,9.0,75,0.00,OVC,OVC,0.03,WeatherDisplay:10.37,2013-03-03 00:17:00,
2013-03-02 16:22:00,50.0,42.4,30.13,NE,44,7.0,12.0,75,0.00,OVC,OVC,0.03,WeatherDisplay:10.37,2013-03-03 00:22:00,
2013-03-02 16:32:00,48.4,41.8,30.13,NE,42,7.0,9.0,78,0.03,RA,RA,0.06,WeatherDisplay:10.37,2013-03-03 00:32:00,
2013-03-02 16:42:00,47.1,41.6,30.13,NE,39,5.0,6.0,81,0.00,RA,RA,0.08,WeatherDisplay:10.37,2013-03-03 00:42:00,
2013-03-02 16:52:00,46.0,41.2,30.13,NNE,20,5.0,7.0,83,0.00,OVC,OVC,0.08,WeatherDisplay:10.37,2013-03-03 00:52:00,
2013-03-02 17:02:00,45.5,40.9,30.13,NE,39,5.0,14.0,84,0.03,RA,RA,0.11,WeatherDisplay:10.37,2013-03-03 01:02:00,
2013-03-02 17:07:00,45.5,41.3,30.13,NNE,19,3.0,7.0,85,0.00,RA,RA,0.11,WeatherDisplay:10.37,2013-03-03 01:07:00,
2013-03-02 17:17:00,45.0,41.0,30.13,North,6,3.0,4.0,86,0.00,OVC,OVC,0.11,WeatherDisplay:10.37,2013-03-03 01:17:00,
2013-03-02 17:22:00,45.0,41.0,30.13,NNE,30,2.0,3.0,86,0.00,OVC,OVC,0.11,WeatherDisplay:10.37,2013-03-03 01:22:00,
2013-03-02 17:32:00,44.6,41.0,30.13,NNE,23,2.0,4.0,87,0.00,RA,RA,0.14,WeatherDisplay:10.37,2013-03-03 01:32:00,
2013-03-02 17:42:00,44.4,40.8,30.13,NE,53,3.0,7.0,87,0.00,OVC,OVC,0.14,WeatherDisplay:10.37,2013-03-03 01:42:00,
2013-03-02 17:52:00,44.4,41.1,30.13,North,9,2.0,3.0,88,0.00,OVC,OVC,0.14,WeatherDisplay:10.37,2013-03-03 01:52:00,
2013-03-02 18:02:00,44.4,41.1,30.13,NNE,15,1.0,5.0,88,0.00,OVC,OVC,0.14,WeatherDisplay:10.37,2013-03-03 02:02:00,
2013-03-02 18:07:00,44.4,41.1,30.13,NNE,18,2.0,5.0,88,0.00,-RA,-RA,0.14,WeatherDisplay:10.37,2013-03-03 02:07:00,
2013-03-02 18:17:00,44.1,40.7,30.13,NNE,14,2.0,4.0,88,0.00,-RA,-RA,0.14,WeatherDisplay:10.37,2013-03-03 02:17:00,
2013-03-02 18:22:00,43.9,40.6,30.13,NNE,13,2.0,5.0,88,0.00,-RA,-RA,0.14,WeatherDisplay:10.37,2013-03-03 02:22:00,
2013-03-02 18:32:00,43.9,40.6,30.13,North,4,2.0,5.0,88,0.00,-RA,-RA,0.14,WeatherDisplay:10.37,2013-03-03 02:32:00,
2013-03-02 18:42:00,43.7,40.4,30.13,NNE,25,2.0,5.0,88,0.00,-RA,-RA,0.14,WeatherDisplay:10.37,2013-03-03 02:42:00,
2013-03-02 18:52:00,43.7,40.7,30.13,NNE,18,1.0,2.0,89,0.00,-RA,-RA,0.17,WeatherDisplay:10.37,2013-03-03 02:52:00,
2013-03-02 19:08:00,44.1,41.0,30.13,SE,135,1.0,2.0,89,0.00,-RA,-RA,0.19,WeatherDisplay:10.37,2013-03-03 03:08:00,
2013-03-02 19:17:00,44.4,41.4,30.13,East,83,0.0,0.0,89,0.03,-RA,-RA,0.22,WeatherDisplay:10.37,2013-03-03 03:17:00,
2013-03-02 19:22:00,44.4,41.4,30.13,ESE,115,0.0,1.0,89,0.00,-RA,-RA,0.22,WeatherDisplay:10.37,2013-03-03 03:22:00,
2013-03-02 19:32:00,44.4,41.4,30.13,SE,126,1.0,1.0,89,0.03,-RA,-RA,0.25,WeatherDisplay:10.37,2013-03-03 03:32:00,
2013-03-02 19:42:00,44.4,41.1,30.13,ESE,102,0.0,2.0,88,0.00,-RA,-RA,0.25,WeatherDisplay:10.37,2013-03-03 03:42:00,
2013-03-02 19:52:00,44.4,41.1,30.13,NNE,20,0.0,0.0,88,0.00,-RA,-RA,0.25,WeatherDisplay:10.37,2013-03-03 03:52:00,
2013-03-02 20:02:00,44.4,41.1,30.13,South,175,1.0,3.0,88,0.00,-RA,-RA,0.28,WeatherDisplay:10.37,2013-03-03 04:02:00,
2013-03-02 20:12:00,44.4,41.1,30.13,SE,129,1.0,2.0,88,0.00,-RA,-RA,0.28,WeatherDisplay:10.37,2013-03-03 04:12:00,
2013-03-02 20:22:00,44.2,40.9,30.13,SW,225,0.0,2.0,88,0.00,-RA,-RA,0.30,WeatherDisplay:10.37,2013-03-03 04:22:00,
2013-03-02 20:32:00,44.2,40.9,30.13,NNE,30,0.0,2.0,88,0.00,-RA,-RA,0.30,WeatherDisplay:10.37,2013-03-03 04:32:00,
2013-03-02 20:42:00,44.2,40.9,30.13,SSW,200,0.0,2.0,88,0.00,-RA,-RA,0.33,WeatherDisplay:10.37,2013-03-03 04:42:00,
2013-03-02 20:52:00,44.1,40.7,30.13,East,91,0.0,1.0,88,0.00,-RA,-RA,0.33,WeatherDisplay:10.37,2013-03-03 04:52:00,
2013-03-02 21:02:00,43.9,40.6,30.13,ENE,77,0.0,1.0,88,0.00,-RA,-RA,0.36,WeatherDisplay:10.37,2013-03-03 05:02:00,
2013-03-02 21:07:00,43.7,40.4,30.13,ENE,70,0.0,1.0,88,0.00,-RA,-RA,0.36,WeatherDisplay:10.37,2013-03-03 05:07:00,
2013-03-02 21:12:00,43.7,40.4,30.13,East,87,0.0,0.0,88,0.00,-RA,-RA,0.36,WeatherDisplay:10.37,2013-03-03 05:12:00,
2013-03-02 21:17:00,43.7,40.4,30.13,East,79,0.0,1.0,88,0.00,-RA,-RA,0.36,WeatherDisplay:10.37,2013-03-03 05:17:00,
2013-03-02 21:22:00,43.7,40.4,30.13,East,99,0.0,1.0,88,0.00,-RA,-RA,0.36,WeatherDisplay:10.37,2013-03-03 05:22:00,
2013-03-02 21:32:00,43.5,39.9,30.13,SE,136,0.0,2.0,87,0.00,-RA,-RA,0.36,WeatherDisplay:10.37,2013-03-03 05:32:00,
2013-03-02 21:37:00,43.5,39.9,30.13,East,99,0.0,1.0,87,0.00,-RA,-RA,0.36,WeatherDisplay:10.37,2013-03-03 05:37:00,
2013-03-02 21:42:00,43.3,39.7,30.13,NE,52,0.0,1.0,87,0.03,-RA,-RA,0.39,WeatherDisplay:10.37,2013-03-03 05:42:00,
2013-03-02 21:52:00,43.2,39.6,30.13,NE,55,0.0,2.0,87,0.03,-RA,-RA,0.41,WeatherDisplay:10.37,2013-03-03 05:52:00,
2013-03-02 22:02:00,43.0,39.4,30.13,ESE,120,0.0,2.0,87,0.00,-RA,-RA,0.41,WeatherDisplay:10.37,2013-03-03 06:02:00,
2013-03-02 22:07:00,43.0,39.4,30.13,SW,214,0.0,0.0,87,0.00,OVC,OVC,0.41,WeatherDisplay:10.37,2013-03-03 06:07:00,
2013-03-02 22:12:00,43.0,39.4,30.13,WNW,299,0.0,2.0,87,0.00,OVC,OVC,0.41,WeatherDisplay:10.37,2013-03-03 06:12:00,
2013-03-02 22:22:00,42.8,39.2,30.13,SSW,192,0.0,3.0,87,0.00,OVC,OVC,0.41,WeatherDisplay:10.37,2013-03-03 06:22:00,
2013-03-02 22:32:00,42.8,39.2,30.13,ESE,106,1.0,1.0,87,0.03,RA,RA,0.44,WeatherDisplay:10.37,2013-03-03 06:32:00,
2013-03-02 22:42:00,42.6,39.0,30.13,SSW,194,1.0,3.0,87,0.00,RA,RA,0.47,WeatherDisplay:10.37,2013-03-03 06:42:00,
2013-03-02 22:52:00,42.6,39.0,30.13,South,189,1.0,2.0,87,0.00,OVC,OVC,0.47,WeatherDisplay:10.37,2013-03-03 06:52:00,
2013-03-02 22:57:00,42.6,39.0,30.13,South,185,0.0,2.0,87,0.00,OVC,OVC,0.47,WeatherDisplay:10.37,2013-03-03 06:57:00,
2013-03-02 23:07:00,42.3,38.7,30.13,SSE,163,1.0,4.0,87,0.00,CLR,CLR,0.47,WeatherDisplay:10.37,2013-03-03 07:07:00,
2013-03-02 23:12:00,42.3,38.7,30.13,SSE,158,2.0,5.0,87,0.00,CLR,CLR,0.47,WeatherDisplay:10.37,2013-03-03 07:12:00,
2013-03-02 23:22:00,42.3,38.7,30.13,SE,128,1.0,2.0,87,0.00,CLR,CLR,0.47,WeatherDisplay:10.37,2013-03-03 07:22:00,
2013-03-02 23:32:00,42.1,38.5,30.13,SSW,193,1.0,1.0,87,0.00,CLR,CLR,0.47,WeatherDisplay:10.37,2013-03-03 07:32:00,
2013-03-02 23:42:00,41.9,38.3,30.13,SSE,149,0.0,1.0,87,0.00,CLR,CLR,0.47,WeatherDisplay:10.37,2013-03-03 07:42:00,
2013-03-02 23:52:00,41.9,38.3,30.13,SSW,206,0.0,1.0,87,0.00,CLR,CLR,0.47,WeatherDisplay:10.37,2013-03-03 07:52:00,